sensor_id;sensor_type;location;lat;lon;timestamp;noise_LAeq;noise_LA_min;noise_LA_max;noise_LA01;noise_LA95
66450;Laerm;56829;52.274;4.770;2023-03-23T00:00:05;51.42;43.28;64.28;;
66450;Laerm;56829;52.274;4.770;2023-03-23T00:00:15;45.08;41.95;52.05;;
66450;Laerm;56829;52.274;4.770;2023-03-23T00:00:26;55.08;48.67;66.12;;
66450;Laerm;56829;52.274;4.770;2023-03-23T00:00:36;56.76;44.47;70.73;;
66450;Laerm;56829;52.274;4.770;2023-03-23T00:00:47;44.38;41.11;49.70;;
66450;Laerm;56829;52.274;4.770;2023-03-23T00:00:57;42.23;38.14;49.18;;
66450;Laerm;56829;52.274;4.770;2023-03-23T00:01:08;39.06;36.92;42.14;;
66450;Laerm;56829;52.274;4.770;2023-03-23T00:01:21;43.18;37.69;56.40;;
66450;Laerm;56829;52.274;4.770;2023-03-23T00:01:31;43.52;38.70;50.75;;
66450;Laerm;56829;52.274;4.770;2023-03-23T00:01:47;56.84;40.93;74.03;;
66450;Laerm;56829;52.274;4.770;2023-03-23T00:01:59;49.31;43.21;61.59;;
66450;Laerm;56829;52.274;4.770;2023-03-23T00:02:09;42.52;37.64;50.56;;
66450;Laerm;56829;52.274;4.770;2023-03-23T00:02:23;39.01;37.10;41.84;;
66450;Laerm;56829;52.274;4.770;2023-03-23T00:02:34;40.78;38.21;57.39;;
66450;Laerm;56829;52.274;4.770;2023-03-23T00:02:47;45.78;38.82;55.04;;
66450;Laerm;56829;52.274;4.770;2023-03-23T00:02:58;53.39;40.31;66.49;;
66450;Laerm;56829;52.274;4.770;2023-03-23T00:03:08;58.00;41.28;71.78;;
66450;Laerm;56829;52.274;4.770;2023-03-23T00:03:18;41.66;39.04;45.26;;
66450;Laerm;56829;52.274;4.770;2023-03-23T00:03:28;42.92;39.84;51.71;;
66450;Laerm;56829;52.274;4.770;2023-03-23T00:03:39;46.73;41.48;57.54;;
66450;Laerm;56829;52.274;4.770;2023-03-23T00:03:50;54.41;41.81;70.36;;
66450;Laerm;56829;52.274;4.770;2023-03-23T00:04:01;57.36;47.14;70.74;;
66450;Laerm;56829;52.274;4.770;2023-03-23T00:04:11;47.73;39.89;61.99;;
66450;Laerm;56829;52.274;4.770;2023-03-23T00:04:23;41.45;38.43;47.91;;
66450;Laerm;56829;52.274;4.770;2023-03-23T00:04:35;40.03;37.34;45.85;;
66450;Laerm;56829;52.274;4.770;2023-03-23T00:04:46;46.91;37.98;60.81;;
66450;Laerm;56829;52.274;4.770;2023-03-23T00:04:59;55.31;43.30;70.63;;
66450;Laerm;56829;52.274;4.770;2023-03-23T00:05:10;57.23;44.91;71.49;;
66450;Laerm;56829;52.274;4.770;2023-03-23T00:05:21;43.58;40.39;52.71;;
66450;Laerm;56829;52.274;4.770;2023-03-23T00:05:31;41.04;38.80;45.57;;
66450;Laerm;56829;52.274;4.770;2023-03-23T00:05:41;40.42;37.35;54.44;;
66450;Laerm;56829;52.274;4.770;2023-03-23T00:05:51;41.69;38.78;45.32;;
66450;Laerm;56829;52.274;4.770;2023-03-23T00:06:02;46.03;39.69;51.22;;
66450;Laerm;56829;52.274;4.770;2023-03-23T00:06:14;39.59;37.91;42.19;;
66450;Laerm;56829;52.274;4.770;2023-03-23T00:06:27;38.19;36.31;42.76;;
66450;Laerm;56829;52.274;4.770;2023-03-23T00:06:37;39.73;36.17;45.15;;
66450;Laerm;56829;52.274;4.770;2023-03-23T00:06:48;37.59;35.86;41.08;;
66450;Laerm;56829;52.274;4.770;2023-03-23T00:06:59;43.32;36.21;56.78;;
66450;Laerm;56829;52.274;4.770;2023-03-23T00:07:12;43.50;38.84;59.35;;
66450;Laerm;56829;52.274;4.770;2023-03-23T00:07:23;42.05;38.73;49.28;;
66450;Laerm;56829;52.274;4.770;2023-03-23T00:07:37;43.75;38.80;55.22;;
66450;Laerm;56829;52.274;4.770;2023-03-23T00:07:47;44.42;39.82;54.02;;
66450;Laerm;56829;52.274;4.770;2023-03-23T00:08:02;41.14;37.55;44.72;;
66450;Laerm;56829;52.274;4.770;2023-03-23T00:08:13;39.36;37.17;41.66;;
66450;Laerm;56829;52.274;4.770;2023-03-23T00:08:25;41.81;37.97;44.70;;
66450;Laerm;56829;52.274;4.770;2023-03-23T00:08:39;46.51;41.65;58.09;;
66450;Laerm;56829;52.274;4.770;2023-03-23T00:08:56;42.38;38.28;54.65;;
66450;Laerm;56829;52.274;4.770;2023-03-23T00:09:09;38.94;37.36;41.85;;
66450;Laerm;56829;52.274;4.770;2023-03-23T00:09:19;43.81;37.49;52.61;;
66450;Laerm;56829;52.274;4.770;2023-03-23T00:09:33;56.95;38.94;71.64;;
66450;Laerm;56829;52.274;4.770;2023-03-23T00:09:44;44.61;39.40;56.86;;
66450;Laerm;56829;52.274;4.770;2023-03-23T00:09:54;41.08;38.21;46.85;;
66450;Laerm;56829;52.274;4.770;2023-03-23T00:10:05;59.42;40.43;74.00;;
66450;Laerm;56829;52.274;4.770;2023-03-23T00:10:16;45.47;41.24;50.62;;
66450;Laerm;56829;52.274;4.770;2023-03-23T00:10:27;56.53;42.97;70.19;;
66450;Laerm;56829;52.274;4.770;2023-03-23T00:10:37;44.62;40.36;55.95;;
66450;Laerm;56829;52.274;4.770;2023-03-23T00:10:48;46.46;41.13;57.99;;
66450;Laerm;56829;52.274;4.770;2023-03-23T00:10:58;56.59;42.27;69.77;;
66450;Laerm;56829;52.274;4.770;2023-03-23T00:11:11;51.89;45.03;61.14;;
66450;Laerm;56829;52.274;4.770;2023-03-23T00:11:26;43.71;39.24;48.19;;
66450;Laerm;56829;52.274;4.770;2023-03-23T00:11:38;48.80;40.70;60.95;;
66450;Laerm;56829;52.274;4.770;2023-03-23T00:11:49;52.40;44.40;63.55;;
66450;Laerm;56829;52.274;4.770;2023-03-23T00:12:00;47.16;41.27;55.23;;
66450;Laerm;56829;52.274;4.770;2023-03-23T00:12:15;52.30;42.60;60.23;;
66450;Laerm;56829;52.274;4.770;2023-03-23T00:12:26;57.20;49.87;66.34;;
66450;Laerm;56829;52.274;4.770;2023-03-23T00:12:43;56.41;42.98;68.31;;
66450;Laerm;56829;52.274;4.770;2023-03-23T00:12:54;48.30;43.31;51.84;;
66450;Laerm;56829;52.274;4.770;2023-03-23T00:13:07;45.24;39.89;49.60;;
66450;Laerm;56829;52.274;4.770;2023-03-23T00:13:18;47.37;39.79;53.53;;
66450;Laerm;56829;52.274;4.770;2023-03-23T00:13:29;49.40;42.10;58.89;;
66450;Laerm;56829;52.274;4.770;2023-03-23T00:13:40;49.67;43.06;62.05;;
66450;Laerm;56829;52.274;4.770;2023-03-23T00:13:51;46.04;40.56;51.80;;
66450;Laerm;56829;52.274;4.770;2023-03-23T00:14:02;42.24;39.54;48.82;;
66450;Laerm;56829;52.274;4.770;2023-03-23T00:14:12;48.52;40.12;63.65;;
66450;Laerm;56829;52.274;4.770;2023-03-23T00:14:23;48.41;39.47;60.72;;
66450;Laerm;56829;52.274;4.770;2023-03-23T00:14:34;41.47;37.56;51.44;;
66450;Laerm;56829;52.274;4.770;2023-03-23T00:14:51;41.66;37.19;46.93;;
66450;Laerm;56829;52.274;4.770;2023-03-23T00:15:04;47.94;42.10;56.32;;
66450;Laerm;56829;52.274;4.770;2023-03-23T00:15:15;43.14;40.06;48.29;;
66450;Laerm;56829;52.274;4.770;2023-03-23T00:15:26;40.95;38.21;45.87;;
66450;Laerm;56829;52.274;4.770;2023-03-23T00:15:36;41.75;37.86;49.12;;
66450;Laerm;56829;52.274;4.770;2023-03-23T00:15:51;44.17;40.83;51.75;;
66450;Laerm;56829;52.274;4.770;2023-03-23T00:16:04;45.69;38.85;52.63;;
66450;Laerm;56829;52.274;4.770;2023-03-23T00:16:14;38.65;36.89;40.12;;
66450;Laerm;56829;52.274;4.770;2023-03-23T00:16:31;37.32;35.52;39.43;;
66450;Laerm;56829;52.274;4.770;2023-03-23T00:16:48;38.56;35.83;42.00;;
66450;Laerm;56829;52.274;4.770;2023-03-23T00:16:58;43.34;38.61;47.58;;
66450;Laerm;56829;52.274;4.770;2023-03-23T00:17:09;52.20;43.34;65.42;;
66450;Laerm;56829;52.274;4.770;2023-03-23T00:17:24;46.53;40.70;59.15;;
66450;Laerm;56829;52.274;4.770;2023-03-23T00:17:35;69.16;38.53;81.12;;
66450;Laerm;56829;52.274;4.770;2023-03-23T00:17:45;61.15;40.01;78.22;;
66450;Laerm;56829;52.274;4.770;2023-03-23T00:17:56;40.33;37.89;46.69;;
66450;Laerm;56829;52.274;4.770;2023-03-23T00:18:12;39.71;37.56;46.53;;
66450;Laerm;56829;52.274;4.770;2023-03-23T00:18:30;54.00;42.11;67.10;;
66450;Laerm;56829;52.274;4.770;2023-03-23T00:18:41;45.96;41.81;56.02;;
66450;Laerm;56829;52.274;4.770;2023-03-23T00:18:51;43.38;40.78;46.44;;
66450;Laerm;56829;52.274;4.770;2023-03-23T00:19:03;49.39;41.41;69.44;;
66450;Laerm;56829;52.274;4.770;2023-03-23T00:19:13;42.16;38.50;46.05;;
66450;Laerm;56829;52.274;4.770;2023-03-23T00:19:23;44.94;39.15;55.90;;
66450;Laerm;56829;52.274;4.770;2023-03-23T00:19:34;50.65;41.79;58.06;;
66450;Laerm;56829;52.274;4.770;2023-03-23T00:19:55;42.00;35.95;51.16;;
66450;Laerm;56829;52.274;4.770;2023-03-23T00:20:05;39.73;36.80;44.96;;
66450;Laerm;56829;52.274;4.770;2023-03-23T00:20:16;38.75;36.05;43.55;;
66450;Laerm;56829;52.274;4.770;2023-03-23T00:20:27;38.38;36.46;43.18;;
66450;Laerm;56829;52.274;4.770;2023-03-23T00:20:39;38.63;36.35;49.08;;
66450;Laerm;56829;52.274;4.770;2023-03-23T00:20:56;55.38;36.44;67.57;;
66450;Laerm;56829;52.274;4.770;2023-03-23T00:21:06;46.75;36.01;61.58;;
66450;Laerm;56829;52.274;4.770;2023-03-23T00:21:17;36.67;35.10;38.16;;
66450;Laerm;56829;52.274;4.770;2023-03-23T00:21:31;44.16;35.43;56.40;;
66450;Laerm;56829;52.274;4.770;2023-03-23T00:21:45;42.46;35.72;51.71;;
66450;Laerm;56829;52.274;4.770;2023-03-23T00:21:55;42.98;38.29;51.53;;
66450;Laerm;56829;52.274;4.770;2023-03-23T00:22:05;39.25;36.79;43.97;;
66450;Laerm;56829;52.274;4.770;2023-03-23T00:22:16;45.92;39.15;60.77;;
66450;Laerm;56829;52.274;4.770;2023-03-23T00:22:29;52.13;39.28;66.33;;
66450;Laerm;56829;52.274;4.770;2023-03-23T00:22:39;42.02;39.07;49.20;;
66450;Laerm;56829;52.274;4.770;2023-03-23T00:22:50;54.78;38.44;68.75;;
66450;Laerm;56829;52.274;4.770;2023-03-23T00:23:01;47.54;37.06;59.92;;
66450;Laerm;56829;52.274;4.770;2023-03-23T00:23:11;40.27;37.07;42.30;;
66450;Laerm;56829;52.274;4.770;2023-03-23T00:23:28;39.87;37.49;45.29;;
66450;Laerm;56829;52.274;4.770;2023-03-23T00:23:38;43.77;38.52;51.08;;
66450;Laerm;56829;52.274;4.770;2023-03-23T00:23:49;40.36;36.35;50.79;;
66450;Laerm;56829;52.274;4.770;2023-03-23T00:24:00;39.18;36.12;45.39;;
66450;Laerm;56829;52.274;4.770;2023-03-23T00:24:11;38.62;35.60;43.29;;
66450;Laerm;56829;52.274;4.770;2023-03-23T00:24:21;56.08;36.53;72.85;;
66450;Laerm;56829;52.274;4.770;2023-03-23T00:24:32;42.12;36.93;49.86;;
66450;Laerm;56829;52.274;4.770;2023-03-23T00:24:43;40.30;36.45;46.54;;
66450;Laerm;56829;52.274;4.770;2023-03-23T00:24:54;50.89;40.71;63.99;;
66450;Laerm;56829;52.274;4.770;2023-03-23T00:25:05;41.92;37.82;49.15;;
66450;Laerm;56829;52.274;4.770;2023-03-23T00:25:15;38.34;36.18;40.22;;
66450;Laerm;56829;52.274;4.770;2023-03-23T00:25:26;38.68;36.28;45.20;;
66450;Laerm;56829;52.274;4.770;2023-03-23T00:25:36;38.26;35.77;43.56;;
66450;Laerm;56829;52.274;4.770;2023-03-23T00:25:47;38.14;35.31;44.91;;
66450;Laerm;56829;52.274;4.770;2023-03-23T00:25:58;37.61;36.10;39.86;;
66450;Laerm;56829;52.274;4.770;2023-03-23T00:26:08;36.93;34.71;42.91;;
66450;Laerm;56829;52.274;4.770;2023-03-23T00:26:18;38.14;34.94;48.04;;
66450;Laerm;56829;52.274;4.770;2023-03-23T00:26:28;39.06;35.68;51.66;;
66450;Laerm;56829;52.274;4.770;2023-03-23T00:26:40;41.09;37.88;47.79;;
66450;Laerm;56829;52.274;4.770;2023-03-23T00:26:51;43.00;39.77;47.84;;
66450;Laerm;56829;52.274;4.770;2023-03-23T00:27:02;48.00;38.58;61.09;;
66450;Laerm;56829;52.274;4.770;2023-03-23T00:27:13;42.71;38.11;58.21;;
66450;Laerm;56829;52.274;4.770;2023-03-23T00:27:24;37.97;35.47;41.95;;
66450;Laerm;56829;52.274;4.770;2023-03-23T00:27:34;37.36;35.70;40.17;;
66450;Laerm;56829;52.274;4.770;2023-03-23T00:27:45;36.68;34.98;40.58;;
66450;Laerm;56829;52.274;4.770;2023-03-23T00:27:55;37.73;35.43;44.46;;
66450;Laerm;56829;52.274;4.770;2023-03-23T00:28:06;38.20;36.35;41.00;;
66450;Laerm;56829;52.274;4.770;2023-03-23T00:28:16;37.58;35.48;40.14;;
66450;Laerm;56829;52.274;4.770;2023-03-23T00:28:27;36.82;34.84;39.04;;
66450;Laerm;56829;52.274;4.770;2023-03-23T00:28:37;51.12;36.03;66.33;;
66450;Laerm;56829;52.274;4.770;2023-03-23T00:28:48;39.79;36.37;45.14;;
66450;Laerm;56829;52.274;4.770;2023-03-23T00:29:02;39.23;34.90;49.48;;
66450;Laerm;56829;52.274;4.770;2023-03-23T00:29:16;43.17;37.80;48.89;;
66450;Laerm;56829;52.274;4.770;2023-03-23T00:29:26;49.88;35.37;63.62;;
66450;Laerm;56829;52.274;4.770;2023-03-23T00:29:37;39.98;35.92;49.19;;
66450;Laerm;56829;52.274;4.770;2023-03-23T00:29:48;37.81;35.82;42.49;;
66450;Laerm;56829;52.274;4.770;2023-03-23T00:29:58;46.27;36.74;55.97;;
66450;Laerm;56829;52.274;4.770;2023-03-23T00:30:08;48.86;40.47;60.90;;
66450;Laerm;56829;52.274;4.770;2023-03-23T00:30:18;47.13;38.01;56.78;;
66450;Laerm;56829;52.274;4.770;2023-03-23T00:30:29;38.22;36.37;40.95;;
66450;Laerm;56829;52.274;4.770;2023-03-23T00:30:40;37.85;36.14;40.99;;
66450;Laerm;56829;52.274;4.770;2023-03-23T00:30:58;37.95;35.47;42.06;;
66450;Laerm;56829;52.274;4.770;2023-03-23T00:31:09;43.71;36.55;58.48;;
66450;Laerm;56829;52.274;4.770;2023-03-23T00:31:19;39.43;35.49;47.57;;
66450;Laerm;56829;52.274;4.770;2023-03-23T00:31:30;36.21;34.78;37.85;;
66450;Laerm;56829;52.274;4.770;2023-03-23T00:31:43;37.17;35.47;39.49;;
66450;Laerm;56829;52.274;4.770;2023-03-23T00:31:56;44.10;37.52;50.14;;
66450;Laerm;56829;52.274;4.770;2023-03-23T00:32:07;43.30;38.69;52.79;;
66450;Laerm;56829;52.274;4.770;2023-03-23T00:32:23;41.69;36.57;53.84;;
66450;Laerm;56829;52.274;4.770;2023-03-23T00:32:39;38.99;35.67;44.14;;
66450;Laerm;56829;52.274;4.770;2023-03-23T00:32:50;38.31;35.43;45.33;;
66450;Laerm;56829;52.274;4.770;2023-03-23T00:33:00;38.97;35.11;43.74;;
66450;Laerm;56829;52.274;4.770;2023-03-23T00:33:11;39.32;36.80;48.70;;
66450;Laerm;56829;52.274;4.770;2023-03-23T00:33:23;55.29;41.07;68.09;;
66450;Laerm;56829;52.274;4.770;2023-03-23T00:33:34;42.44;39.08;49.25;;
66450;Laerm;56829;52.274;4.770;2023-03-23T00:33:47;44.84;37.41;53.74;;
66450;Laerm;56829;52.274;4.770;2023-03-23T00:33:58;37.79;35.86;41.05;;
66450;Laerm;56829;52.274;4.770;2023-03-23T00:34:10;40.49;35.63;52.37;;
66450;Laerm;56829;52.274;4.770;2023-03-23T00:34:22;43.99;37.82;57.74;;
66450;Laerm;56829;52.274;4.770;2023-03-23T00:34:34;38.58;35.08;40.93;;
66450;Laerm;56829;52.274;4.770;2023-03-23T00:34:44;36.20;33.92;45.84;;
66450;Laerm;56829;52.274;4.770;2023-03-23T00:34:57;36.69;34.34;38.88;;
66450;Laerm;56829;52.274;4.770;2023-03-23T00:35:10;37.33;35.03;40.23;;
66450;Laerm;56829;52.274;4.770;2023-03-23T00:35:21;37.34;34.95;42.78;;
66450;Laerm;56829;52.274;4.770;2023-03-23T00:35:31;36.67;34.97;38.86;;
66450;Laerm;56829;52.274;4.770;2023-03-23T00:35:41;36.45;34.60;38.52;;
66450;Laerm;56829;52.274;4.770;2023-03-23T00:35:51;36.33;34.86;38.43;;
66450;Laerm;56829;52.274;4.770;2023-03-23T00:36:02;37.34;35.07;43.56;;
66450;Laerm;56829;52.274;4.770;2023-03-23T00:36:13;38.30;35.94;40.46;;
66450;Laerm;56829;52.274;4.770;2023-03-23T00:36:23;39.91;37.25;48.95;;
66450;Laerm;56829;52.274;4.770;2023-03-23T00:36:34;38.64;36.49;42.08;;
66450;Laerm;56829;52.274;4.770;2023-03-23T00:36:48;39.34;36.24;47.45;;
66450;Laerm;56829;52.274;4.770;2023-03-23T00:36:59;38.47;35.65;42.44;;
66450;Laerm;56829;52.274;4.770;2023-03-23T00:37:09;38.49;35.82;43.74;;
66450;Laerm;56829;52.274;4.770;2023-03-23T00:37:20;36.54;34.87;38.77;;
66450;Laerm;56829;52.274;4.770;2023-03-23T00:37:30;37.65;35.51;42.50;;
66450;Laerm;56829;52.274;4.770;2023-03-23T00:37:40;38.81;35.97;46.65;;
66450;Laerm;56829;52.274;4.770;2023-03-23T00:37:50;39.21;34.92;48.89;;
66450;Laerm;56829;52.274;4.770;2023-03-23T00:38:00;43.33;36.95;54.19;;
66450;Laerm;56829;52.274;4.770;2023-03-23T00:38:10;37.42;35.38;42.55;;
66450;Laerm;56829;52.274;4.770;2023-03-23T00:38:21;37.64;35.10;40.11;;
66450;Laerm;56829;52.274;4.770;2023-03-23T00:38:32;38.19;35.84;41.99;;
66450;Laerm;56829;52.274;4.770;2023-03-23T00:38:42;36.91;34.83;39.09;;
66450;Laerm;56829;52.274;4.770;2023-03-23T00:38:54;43.88;36.95;56.92;;
66450;Laerm;56829;52.274;4.770;2023-03-23T00:39:07;43.10;39.07;55.93;;
66450;Laerm;56829;52.274;4.770;2023-03-23T00:39:18;51.16;41.89;59.50;;
66450;Laerm;56829;52.274;4.770;2023-03-23T00:39:28;46.39;39.70;52.49;;
66450;Laerm;56829;52.274;4.770;2023-03-23T00:39:38;40.25;36.53;51.22;;
66450;Laerm;56829;52.274;4.770;2023-03-23T00:39:49;43.78;36.87;58.09;;
66450;Laerm;56829;52.274;4.770;2023-03-23T00:40:02;37.91;35.74;40.28;;
66450;Laerm;56829;52.274;4.770;2023-03-23T00:40:16;45.52;38.41;54.43;;
66450;Laerm;56829;52.274;4.770;2023-03-23T00:40:27;42.89;36.64;51.22;;
66450;Laerm;56829;52.274;4.770;2023-03-23T00:40:37;38.38;35.14;42.31;;
66450;Laerm;56829;52.274;4.770;2023-03-23T00:40:47;40.02;37.19;49.47;;
66450;Laerm;56829;52.274;4.770;2023-03-23T00:40:58;43.20;38.77;56.04;;
66450;Laerm;56829;52.274;4.770;2023-03-23T00:41:13;40.20;36.14;52.83;;
66450;Laerm;56829;52.274;4.770;2023-03-23T00:41:25;49.17;36.62;58.14;;
66450;Laerm;56829;52.274;4.770;2023-03-23T00:41:38;55.56;42.78;70.98;;
66450;Laerm;56829;52.274;4.770;2023-03-23T00:41:48;45.30;36.24;59.33;;
66450;Laerm;56829;52.274;4.770;2023-03-23T00:41:59;46.37;38.47;53.87;;
66450;Laerm;56829;52.274;4.770;2023-03-23T00:42:15;39.51;37.53;43.40;;
66450;Laerm;56829;52.274;4.770;2023-03-23T00:42:26;38.35;36.23;41.51;;
66450;Laerm;56829;52.274;4.770;2023-03-23T00:42:38;38.40;35.70;44.52;;
66450;Laerm;56829;52.274;4.770;2023-03-23T00:42:48;49.41;36.57;68.55;;
66450;Laerm;56829;52.274;4.770;2023-03-23T00:42:58;52.79;41.79;66.29;;
66450;Laerm;56829;52.274;4.770;2023-03-23T00:43:09;56.85;39.93;74.14;;
66450;Laerm;56829;52.274;4.770;2023-03-23T00:43:24;50.96;39.63;63.66;;
66450;Laerm;56829;52.274;4.770;2023-03-23T00:43:38;40.05;36.40;46.02;;
66450;Laerm;56829;52.274;4.770;2023-03-23T00:43:49;39.63;36.16;44.85;;
66450;Laerm;56829;52.274;4.770;2023-03-23T00:44:01;36.80;34.67;40.01;;
66450;Laerm;56829;52.274;4.770;2023-03-23T00:44:12;37.09;35.09;43.08;;
66450;Laerm;56829;52.274;4.770;2023-03-23T00:44:30;40.50;35.08;44.28;;
66450;Laerm;56829;52.274;4.770;2023-03-23T00:44:41;55.55;36.38;70.27;;
66450;Laerm;56829;52.274;4.770;2023-03-23T00:44:53;42.08;36.71;47.65;;
66450;Laerm;56829;52.274;4.770;2023-03-23T00:45:10;39.04;35.60;48.11;;
66450;Laerm;56829;52.274;4.770;2023-03-23T00:45:20;37.95;35.02;44.20;;
66450;Laerm;56829;52.274;4.770;2023-03-23T00:45:31;42.03;36.25;48.72;;
66450;Laerm;56829;52.274;4.770;2023-03-23T00:45:42;53.21;41.64;65.18;;
66450;Laerm;56829;52.274;4.770;2023-03-23T00:45:55;45.28;36.63;55.79;;
66450;Laerm;56829;52.274;4.770;2023-03-23T00:46:05;37.96;35.52;41.26;;
66450;Laerm;56829;52.274;4.770;2023-03-23T00:46:19;39.22;35.30;45.68;;
66450;Laerm;56829;52.274;4.770;2023-03-23T00:46:30;37.57;35.19;42.87;;
66450;Laerm;56829;52.274;4.770;2023-03-23T00:46:40;36.87;34.49;43.32;;
66450;Laerm;56829;52.274;4.770;2023-03-23T00:46:54;36.91;34.21;40.88;;
66450;Laerm;56829;52.274;4.770;2023-03-23T00:47:06;41.06;36.34;48.50;;
66450;Laerm;56829;52.274;4.770;2023-03-23T00:47:18;48.15;41.79;56.89;;
66450;Laerm;56829;52.274;4.770;2023-03-23T00:47:28;43.18;40.78;45.92;;
66450;Laerm;56829;52.274;4.770;2023-03-23T00:47:40;40.46;35.99;47.46;;
66450;Laerm;56829;52.274;4.770;2023-03-23T00:47:56;43.83;36.77;51.25;;
66450;Laerm;56829;52.274;4.770;2023-03-23T00:48:11;43.19;36.90;50.84;;
66450;Laerm;56829;52.274;4.770;2023-03-23T00:48:24;37.06;34.77;40.07;;
66450;Laerm;56829;52.274;4.770;2023-03-23T00:48:35;38.16;35.02;46.35;;
66450;Laerm;56829;52.274;4.770;2023-03-23T00:48:46;49.40;38.63;65.00;;
66450;Laerm;56829;52.274;4.770;2023-03-23T00:48:56;45.42;40.21;54.34;;
66450;Laerm;56829;52.274;4.770;2023-03-23T00:49:07;45.05;39.10;51.91;;
66450;Laerm;56829;52.274;4.770;2023-03-23T00:49:20;43.32;37.26;57.67;;
66450;Laerm;56829;52.274;4.770;2023-03-23T00:49:34;36.72;34.83;43.04;;
66450;Laerm;56829;52.274;4.770;2023-03-23T00:49:44;43.31;36.43;51.02;;
66450;Laerm;56829;52.274;4.770;2023-03-23T00:49:54;45.29;39.82;51.87;;
66450;Laerm;56829;52.274;4.770;2023-03-23T00:50:06;39.91;37.25;46.44;;
66450;Laerm;56829;52.274;4.770;2023-03-23T00:50:16;39.51;36.25;43.54;;
66450;Laerm;56829;52.274;4.770;2023-03-23T00:50:28;52.54;39.52;63.08;;
66450;Laerm;56829;52.274;4.770;2023-03-23T00:50:39;44.84;38.24;52.86;;
66450;Laerm;56829;52.274;4.770;2023-03-23T00:50:49;37.46;35.35;39.88;;
66450;Laerm;56829;52.274;4.770;2023-03-23T00:51:00;39.85;34.85;44.16;;
66450;Laerm;56829;52.274;4.770;2023-03-23T00:51:11;40.33;36.91;46.16;;
66450;Laerm;56829;52.274;4.770;2023-03-23T00:51:22;37.67;35.40;41.28;;
66450;Laerm;56829;52.274;4.770;2023-03-23T00:51:32;36.56;34.45;43.10;;
66450;Laerm;56829;52.274;4.770;2023-03-23T00:51:43;36.58;34.64;39.27;;
66450;Laerm;56829;52.274;4.770;2023-03-23T00:51:54;36.33;34.37;44.58;;
66450;Laerm;56829;52.274;4.770;2023-03-23T00:52:05;37.03;35.12;44.13;;
66450;Laerm;56829;52.274;4.770;2023-03-23T00:52:15;51.63;36.23;65.16;;
66450;Laerm;56829;52.274;4.770;2023-03-23T00:52:26;56.10;39.00;72.41;;
66450;Laerm;56829;52.274;4.770;2023-03-23T00:52:36;47.42;40.77;59.53;;
66450;Laerm;56829;52.274;4.770;2023-03-23T00:52:46;48.21;40.20;61.48;;
66450;Laerm;56829;52.274;4.770;2023-03-23T00:52:57;48.18;41.60;54.90;;
66450;Laerm;56829;52.274;4.770;2023-03-23T00:53:07;53.02;42.34;62.45;;
66450;Laerm;56829;52.274;4.770;2023-03-23T00:53:18;42.32;36.68;46.10;;
66450;Laerm;56829;52.274;4.770;2023-03-23T00:53:28;38.79;36.94;41.30;;
66450;Laerm;56829;52.274;4.770;2023-03-23T00:53:39;41.63;36.61;47.37;;
66450;Laerm;56829;52.274;4.770;2023-03-23T00:53:49;40.50;37.35;46.83;;
66450;Laerm;56829;52.274;4.770;2023-03-23T00:54:00;46.22;37.50;58.45;;
66450;Laerm;56829;52.274;4.770;2023-03-23T00:54:10;37.56;35.86;43.60;;
66450;Laerm;56829;52.274;4.770;2023-03-23T00:54:21;36.44;34.67;40.28;;
66450;Laerm;56829;52.274;4.770;2023-03-23T00:54:31;40.51;35.99;56.53;;
66450;Laerm;56829;52.274;4.770;2023-03-23T00:54:42;50.73;38.59;65.75;;
66450;Laerm;56829;52.274;4.770;2023-03-23T00:54:52;44.37;39.58;53.26;;
66450;Laerm;56829;52.274;4.770;2023-03-23T00:55:03;45.10;40.02;59.82;;
66450;Laerm;56829;52.274;4.770;2023-03-23T00:55:13;42.52;38.24;53.71;;
66450;Laerm;56829;52.274;4.770;2023-03-23T00:55:24;39.04;36.16;45.25;;
66450;Laerm;56829;52.274;4.770;2023-03-23T00:55:34;36.51;34.92;38.55;;
66450;Laerm;56829;52.274;4.770;2023-03-23T00:55:45;35.90;34.30;46.08;;
66450;Laerm;56829;52.274;4.770;2023-03-23T00:55:55;35.77;33.43;38.82;;
66450;Laerm;56829;52.274;4.770;2023-03-23T00:56:07;51.13;34.77;68.64;;
66450;Laerm;56829;52.274;4.770;2023-03-23T00:56:17;41.94;35.58;54.86;;
66450;Laerm;56829;52.274;4.770;2023-03-23T00:56:27;35.96;33.21;42.93;;
66450;Laerm;56829;52.274;4.770;2023-03-23T00:56:38;34.37;32.67;38.53;;
66450;Laerm;56829;52.274;4.770;2023-03-23T00:56:49;35.50;32.85;38.58;;
66450;Laerm;56829;52.274;4.770;2023-03-23T00:57:00;36.16;34.02;42.54;;
66450;Laerm;56829;52.274;4.770;2023-03-23T00:57:10;35.96;33.66;39.51;;
66450;Laerm;56829;52.274;4.770;2023-03-23T00:57:20;37.71;33.70;41.32;;
66450;Laerm;56829;52.274;4.770;2023-03-23T00:57:33;49.23;36.00;65.50;;
66450;Laerm;56829;52.274;4.770;2023-03-23T00:57:44;39.97;36.14;57.28;;
66450;Laerm;56829;52.274;4.770;2023-03-23T00:57:54;40.06;36.56;44.08;;
66450;Laerm;56829;52.274;4.770;2023-03-23T00:58:04;38.89;35.97;44.93;;
66450;Laerm;56829;52.274;4.770;2023-03-23T00:58:15;44.05;36.47;59.28;;
66450;Laerm;56829;52.274;4.770;2023-03-23T00:58:25;56.60;45.77;68.63;;
66450;Laerm;56829;52.274;4.770;2023-03-23T00:58:35;46.33;37.90;58.09;;
66450;Laerm;56829;52.274;4.770;2023-03-23T00:58:46;38.04;35.54;46.17;;
66450;Laerm;56829;52.274;4.770;2023-03-23T00:58:56;39.43;34.06;49.19;;
66450;Laerm;56829;52.274;4.770;2023-03-23T00:59:06;42.61;39.48;55.19;;
66450;Laerm;56829;52.274;4.770;2023-03-23T00:59:16;42.24;38.13;53.44;;
66450;Laerm;56829;52.274;4.770;2023-03-23T00:59:26;52.78;39.36;65.04;;
66450;Laerm;56829;52.274;4.770;2023-03-23T00:59:36;46.33;39.39;62.04;;
66450;Laerm;56829;52.274;4.770;2023-03-23T00:59:47;45.60;39.56;53.07;;
66450;Laerm;56829;52.274;4.770;2023-03-23T00:59:57;39.37;37.46;42.35;;
66450;Laerm;56829;52.274;4.770;2023-03-23T01:00:07;38.24;35.41;44.96;;
66450;Laerm;56829;52.274;4.770;2023-03-23T01:00:21;40.21;36.81;50.50;;
66450;Laerm;56829;52.274;4.770;2023-03-23T01:00:32;37.40;34.23;39.81;;
66450;Laerm;56829;52.274;4.770;2023-03-23T01:00:42;35.34;33.79;37.65;;
66450;Laerm;56829;52.274;4.770;2023-03-23T01:00:52;35.59;33.59;38.29;;
66450;Laerm;56829;52.274;4.770;2023-03-23T01:01:03;36.18;34.32;37.93;;
66450;Laerm;56829;52.274;4.770;2023-03-23T01:01:14;35.85;34.38;39.94;;
66450;Laerm;56829;52.274;4.770;2023-03-23T01:01:24;37.40;35.27;41.07;;
66450;Laerm;56829;52.274;4.770;2023-03-23T01:01:34;35.61;33.77;40.74;;
66450;Laerm;56829;52.274;4.770;2023-03-23T01:01:45;35.38;33.72;36.83;;
66450;Laerm;56829;52.274;4.770;2023-03-23T01:01:56;34.78;33.08;39.93;;
66450;Laerm;56829;52.274;4.770;2023-03-23T01:02:06;35.26;33.65;38.52;;
66450;Laerm;56829;52.274;4.770;2023-03-23T01:02:16;35.98;34.04;39.68;;
66450;Laerm;56829;52.274;4.770;2023-03-23T01:02:28;37.41;33.70;42.97;;
66450;Laerm;56829;52.274;4.770;2023-03-23T01:02:38;39.64;35.93;42.35;;
66450;Laerm;56829;52.274;4.770;2023-03-23T01:02:50;46.01;37.60;63.57;;
66450;Laerm;56829;52.274;4.770;2023-03-23T01:03:02;48.92;42.38;60.97;;
66450;Laerm;56829;52.274;4.770;2023-03-23T01:03:12;41.86;38.75;46.55;;
66450;Laerm;56829;52.274;4.770;2023-03-23T01:03:28;36.92;34.25;45.06;;
66450;Laerm;56829;52.274;4.770;2023-03-23T01:03:39;38.37;35.23;42.15;;
66450;Laerm;56829;52.274;4.770;2023-03-23T01:03:49;43.91;37.40;53.95;;
66450;Laerm;56829;52.274;4.770;2023-03-23T01:04:00;40.57;35.42;46.17;;